Time;durP1;ratioP1;P1;durP2;ratioP2;P2;SDS_P1;SDS_P2;PMS_P1;PMS_P2;Temp;Humidity;BMP_temperature;BMP_pressure;BME280_temperature;BME280_humidity;BME280_pressure;Samples;Min_cycle;Max_cycle;Signal;HPM_P1;HPM_P2
2022/04/26 03:36:18;;;;;;;12.93;5.00;;;;;;;;;;5122004;27;20056;-64
2022/04/26 03:38:47;;;;;;;13.52;5.78;;;;;;;;;;5131361;27;20051;-64
2022/04/26 03:41:14;;;;;;;15.35;5.80;;;;;;;;;;5126142;27;20101;-64
2022/04/26 03:43:40;;;;;;;14.50;6.57;;;;;;;;;;5110003;28;20529;-64
2022/04/26 03:46:07;;;;;;;18.00;5.85;;;;;;;;;;5110504;27;20138;-64
2022/04/26 03:48:33;;;;;;;15.35;6.40;;;;;;;;;;5110620;27;20059;-64
2022/04/26 03:51:00;;;;;;;15.32;5.88;;;;;;;;;;5110178;27;20518;-64
2022/04/26 03:53:26;;;;;;;10.63;6.05;;;;;;;;;;5114349;27;20129;-63
2022/04/26 03:55:53;;;;;;;13.27;6.15;;;;;;;;;;5129801;27;20584;-65
2022/04/26 03:58:19;;;;;;;14.32;6.60;;;;;;;;;;5130446;27;20989;-65
2022/04/26 04:00:45;;;;;;;14.80;6.72;;;;;;;;;;5130322;27;20200;-65
2022/04/26 04:03:12;;;;;;;14.48;6.25;;;;;;;;;;5127113;27;20142;-65
2022/04/26 04:05:41;;;;;;;12.02;6.78;;;;;;;;;;5116565;27;20051;-65
2022/04/26 04:08:07;;;;;;;14.80;7.60;;;;;;;;;;5131019;27;20052;-66
2022/04/26 04:10:33;;;;;;;14.40;7.63;;;;;;;;;;5128832;27;20593;-66
2022/04/26 04:13:00;;;;;;;15.43;7.93;;;;;;;;;;5109643;27;20087;-66
2022/04/26 04:15:26;;;;;;;18.33;7.50;;;;;;;;;;5108905;27;20059;-65
2022/04/26 04:17:53;;;;;;;17.05;7.07;;;;;;;;;;5115522;27;20104;-65
2022/04/26 04:20:20;;;;;;;13.63;7.63;;;;;;;;;;5130355;27;20116;-65
2022/04/26 04:22:48;;;;;;;16.45;6.88;;;;;;;;;;5110163;27;20137;-65
2022/04/26 04:25:15;;;;;;;17.48;8.25;;;;;;;;;;5114338;27;20043;-66
2022/04/26 04:27:42;;;;;;;13.27;6.47;;;;;;;;;;5130550;27;20083;-66
2022/04/26 04:30:09;;;;;;;14.20;6.22;;;;;;;;;;5130322;27;20601;-65
2022/04/26 04:32:35;;;;;;;12.30;6.22;;;;;;;;;;5112099;27;20083;-63
2022/04/26 04:35:01;;;;;;;16.63;8.10;;;;;;;;;;5109276;27;20151;-65
2022/04/26 04:37:28;;;;;;;18.55;7.47;;;;;;;;;;5109155;27;20084;-65
2022/04/26 04:39:54;;;;;;;16.45;6.78;;;;;;;;;;5109473;27;20083;-65
2022/04/26 04:42:21;;;;;;;18.60;7.40;;;;;;;;;;5112195;27;20059;-66
2022/04/26 04:44:48;;;;;;;13.43;5.95;;;;;;;;;;5111947;27;20501;-65
2022/04/26 04:47:14;;;;;;;18.08;7.45;;;;;;;;;;5110740;27;20040;-65
2022/04/26 04:49:40;;;;;;;16.58;6.57;;;;;;;;;;5112156;27;20146;-66
2022/04/26 04:52:07;;;;;;;15.45;7.10;;;;;;;;;;5116666;27;20181;-66
2022/04/26 04:54:33;;;;;;;14.10;6.82;;;;;;;;;;5109223;27;20137;-66
2022/04/26 04:57:02;;;;;;;14.82;6.40;;;;;;;;;;5109138;27;20082;-66
2022/04/26 04:59:28;;;;;;;14.63;6.30;;;;;;;;;;5109568;27;20125;-65
2022/04/26 05:01:55;;;;;;;16.92;7.05;;;;;;;;;;5120802;27;20052;-65
2022/04/26 05:04:21;;;;;;;19.83;6.85;;;;;;;;;;5128790;27;20083;-65
2022/04/26 05:06:48;;;;;;;10.93;6.07;;;;;;;;;;5127656;27;20849;-65
2022/04/26 05:09:14;;;;;;;14.82;6.85;;;;;;;;;;5122757;27;20144;-65
2022/04/26 05:11:40;;;;;;;22.13;7.65;;;;;;;;;;5119282;27;20075;-65
2022/04/26 05:14:07;;;;;;;13.63;6.00;;;;;;;;;;5112569;27;20052;-65
2022/04/26 05:16:33;;;;;;;15.10;6.95;;;;;;;;;;5114911;27;20453;-65
2022/04/26 05:19:00;;;;;;;13.95;5.93;;;;;;;;;;5129374;27;20051;-65
2022/04/26 05:21:26;;;;;;;14.02;5.93;;;;;;;;;;5128696;27;20052;-65
2022/04/26 05:26:37;;;;;;;16.83;5.90;;;;;;;;;;5129016;27;20052;-65
2022/04/26 05:29:05;;;;;;;17.25;6.50;;;;;;;;;;5130146;27;20060;-65
2022/04/26 05:31:32;;;;;;;15.40;6.50;;;;;;;;;;5119061;27;20048;-65
2022/04/26 05:33:58;;;;;;;14.80;6.57;;;;;;;;;;5123496;27;20052;-65
2022/04/26 05:36:30;;;;;;;20.13;7.32;;;;;;;;;;5126489;27;20052;-65
2022/04/26 05:38:59;;;;;;;11.07;6.07;;;;;;;;;;5131165;27;20521;-64
2022/04/26 05:41:25;;;;;;;16.52;6.95;;;;;;;;;;5125101;27;20086;-64
2022/04/26 05:43:52;;;;;;;13.35;6.15;;;;;;;;;;5111470;27;20056;-64
2022/04/26 05:46:18;;;;;;;13.55;5.60;;;;;;;;;;5125598;27;20060;-64
2022/04/26 05:48:44;;;;;;;12.68;5.70;;;;;;;;;;5114527;27;20055;-64
2022/04/26 05:51:11;;;;;;;15.35;5.32;;;;;;;;;;5113703;27;20527;-64
2022/04/26 05:53:40;;;;;;;16.55;6.07;;;;;;;;;;5111725;27;20059;-64
2022/04/26 05:56:08;;;;;;;15.13;5.35;;;;;;;;;;5121803;27;20075;-64
2022/04/26 05:58:35;;;;;;;;;;;;;;;;;;5131560;27;20043;-65
2022/04/26 06:01:02;;;;;;;16.52;5.57;;;;;;;;;;5115387;27;46119;-64
2022/04/26 06:03:28;;;;;;;14.15;5.13;;;;;;;;;;5132394;27;20142;-64
2022/04/26 06:05:57;;;;;;;18.13;6.00;;;;;;;;;;5131466;27;20105;-65
2022/04/26 06:08:23;;;;;;;13.33;5.37;;;;;;;;;;5129558;27;20144;-64
2022/04/26 06:10:49;;;;;;;16.27;5.78;;;;;;;;;;5131590;27;20285;-64
2022/04/26 06:13:16;;;;;;;18.10;6.50;;;;;;;;;;5128139;27;20098;-64
2022/04/26 06:15:42;;;;;;;14.13;6.03;;;;;;;;;;5128158;27;20509;-64
2022/04/26 06:18:08;;;;;;;12.27;5.82;;;;;;;;;;5131633;27;20047;-65
2022/04/26 06:20:35;;;;;;;17.25;5.53;;;;;;;;;;5111604;27;20201;-65
2022/04/26 06:23:02;;;;;;;16.02;6.40;;;;;;;;;;5117715;27;20087;-63
2022/04/26 06:25:28;;;;;;;20.13;6.07;;;;;;;;;;5111064;27;20499;-62
2022/04/26 06:27:54;;;;;;;11.95;5.25;;;;;;;;;;5110503;27;20072;-62
2022/04/26 06:30:23;;;;;;;13.85;4.70;;;;;;;;;;5110561;27;20153;-62
2022/04/26 06:32:49;;;;;;;11.38;4.20;;;;;;;;;;5117294;27;20055;-63
2022/04/26 06:35:15;;;;;;;12.32;4.95;;;;;;;;;;5109286;27;20083;-63
2022/04/26 06:37:42;;;;;;;11.15;4.28;;;;;;;;;;5120527;27;20078;-63
2022/04/26 06:40:08;;;;;;;15.20;5.13;;;;;;;;;;5131323;27;20130;-62
2022/04/26 06:42:34;;;;;;;14.65;4.60;;;;;;;;;;5131031;27;20087;-62
2022/04/26 06:45:01;;;;;;;11.10;3.65;;;;;;;;;;5119533;27;20048;-62
2022/04/26 06:47:27;;;;;;;14.20;4.68;;;;;;;;;;5123376;27;20464;-63
2022/04/26 06:49:54;;;;;;;15.38;5.68;;;;;;;;;;5130823;27;20079;-63
2022/04/26 06:52:20;;;;;;;15.38;4.30;;;;;;;;;;5124061;27;20139;-63
2022/04/26 06:54:46;;;;;;;14.43;4.40;;;;;;;;;;5117132;27;20144;-64
2022/04/26 06:57:12;;;;;;;11.77;4.20;;;;;;;;;;5125030;27;20155;-63
2022/04/26 06:59:39;;;;;;;13.30;3.85;;;;;;;;;;5110174;27;20048;-67
2022/04/26 07:02:06;;;;;;;13.68;4.65;;;;;;;;;;5111012;27;20076;-64
2022/04/26 07:04:33;;;;;;;13.18;4.45;;;;;;;;;;5120146;27;20056;-64
2022/04/26 07:07:00;;;;;;;15.57;4.47;;;;;;;;;;5129712;27;20063;-64
2022/04/26 07:09:27;;;;;;;14.38;4.95;;;;;;;;;;5128965;27;20079;-64
2022/04/26 07:11:53;;;;;;;12.10;4.35;;;;;;;;;;5114405;27;20143;-65
2022/04/26 07:14:20;;;;;;;12.98;4.00;;;;;;;;;;5123633;27;20082;-64
2022/04/26 07:16:49;;;;;;;13.00;4.22;;;;;;;;;;5114498;27;20137;-64
2022/04/26 07:19:17;;;;;;;12.27;3.58;;;;;;;;;;5113838;27;20109;-64
2022/04/26 07:21:47;;;;;;;9.50;4.15;;;;;;;;;;5118067;27;20579;-64
2022/04/26 07:24:32;;;;;;;8.93;3.80;;;;;;;;;;5128825;27;20055;-64
2022/04/26 07:26:59;;;;;;;10.05;4.10;;;;;;;;;;5122274;27;20088;-64
2022/04/26 07:29:26;;;;;;;10.48;4.55;;;;;;;;;;5109699;27;20071;-64
2022/04/26 07:31:52;;;;;;;14.02;4.53;;;;;;;;;;5128193;27;20619;-64
2022/04/26 07:34:22;;;;;;;13.68;4.78;;;;;;;;;;5129284;27;20056;-64
2022/04/26 07:36:52;;;;;;;12.57;5.25;;;;;;;;;;5128975;27;20048;-63
2022/04/26 07:39:19;;;;;;;13.43;4.18;;;;;;;;;;5130407;27;20109;-64
2022/04/26 07:41:46;;;;;;;14.07;4.68;;;;;;;;;;5120860;27;20147;-64
2022/04/26 07:44:13;;;;;;;7.90;3.83;;;;;;;;;;5113408;27;20142;-64
2022/04/26 07:46:45;;;;;;;13.43;4.28;;;;;;;;;;5115321;27;20139;-64
2022/04/26 07:49:12;;;;;;;12.50;3.92;;;;;;;;;;5124132;27;20571;-64
2022/04/26 07:51:39;;;;;;;12.77;4.30;;;;;;;;;;5113422;27;20166;-64
2022/04/26 07:54:06;;;;;;;10.18;4.32;;;;;;;;;;5119260;27;20101;-64
2022/04/26 07:56:32;;;;;;;13.88;5.25;;;;;;;;;;5127536;27;20055;-64
2022/04/26 07:59:00;;;;;;;12.50;4.60;;;;;;;;;;5123827;27;20070;-64
2022/04/26 08:01:28;;;;;;;13.65;4.53;;;;;;;;;;5128697;27;20232;-64
2022/04/26 08:03:55;;;;;;;11.15;3.75;;;;;;;;;;5122477;27;20048;-64
2022/04/26 08:06:22;;;;;;;13.15;4.55;;;;;;;;;;5110561;27;20052;-64
2022/04/26 08:08:48;;;;;;;13.68;4.97;;;;;;;;;;5125602;27;20052;-64
2022/04/26 08:11:15;;;;;;;11.35;4.35;;;;;;;;;;5129753;27;20168;-64
2022/04/26 08:13:42;;;;;;;9.88;4.00;;;;;;;;;;5117118;27;20238;-64
2022/04/26 08:16:14;;;;;;;14.07;4.68;;;;;;;;;;5125500;27;20063;-66
2022/04/26 08:18:41;;;;;;;11.88;4.18;;;;;;;;;;5127762;27;20056;-65
2022/04/26 08:21:08;;;;;;;12.95;3.75;;;;;;;;;;5109324;27;20106;-66
2022/04/26 08:27:22;;;;;;;9.98;3.72;;;;;;;;;;5123721;27;20087;-65
2022/04/26 08:29:06;;;;;;;10.90;3.92;;;;;;;;;;5129327;27;20084;-64
2022/04/26 08:31:33;;;;;;;11.65;3.63;;;;;;;;;;5109778;27;20087;-64
2022/04/26 08:34:00;;;;;;;8.75;3.90;;;;;;;;;;5108416;27;20087;-64
2022/04/26 08:36:26;;;;;;;9.50;3.83;;;;;;;;;;5115884;27;20130;-65
2022/04/26 08:38:58;;;;;;;7.35;3.55;;;;;;;;;;5109486;27;20052;-66
2022/04/26 08:41:24;;;;;;;13.43;3.75;;;;;;;;;;5115007;27;20051;-65
2022/04/26 08:43:51;;;;;;;10.10;3.65;;;;;;;;;;5108321;27;20144;-65
2022/04/26 08:46:17;;;;;;;14.57;3.72;;;;;;;;;;5111641;27;20055;-65
2022/04/26 08:51:29;;;;;;;8.05;3.22;;;;;;;;;;5112644;27;20075;-65
2022/04/26 08:53:56;;;;;;;7.72;3.20;;;;;;;;;;5110627;27;20096;-65
2022/04/26 08:56:22;;;;;;;8.38;3.97;;;;;;;;;;5107907;27;20096;-65
2022/04/26 08:58:50;;;;;;;9.73;4.00;;;;;;;;;;5109584;27;20968;-66
2022/04/26 09:01:18;;;;;;;13.60;4.13;;;;;;;;;;5114216;27;20121;-65
2022/04/26 09:03:54;;;;;;;12.63;3.50;;;;;;;;;;5129120;27;20096;-66
2022/04/26 09:06:21;;;;;;;10.77;3.65;;;;;;;;;;5126316;27;20058;-66
2022/04/26 09:08:50;;;;;;;10.13;3.10;;;;;;;;;;5127666;27;20102;-65
2022/04/26 09:11:21;;;;;;;8.73;3.50;;;;;;;;;;5123266;27;20085;-65
2022/04/26 09:13:48;;;;;;;8.77;3.47;;;;;;;;;;5127564;27;20505;-65
2022/04/26 09:16:15;;;;;;;10.23;3.08;;;;;;;;;;5129211;27;20109;-65
2022/04/26 09:18:49;;;;;;;8.85;3.40;;;;;;;;;;5127978;27;20461;-65
2022/04/26 09:21:15;;;;;;;7.40;2.90;;;;;;;;;;5128741;27;20874;-65
2022/04/26 09:23:42;;;;;;;8.02;3.08;;;;;;;;;;5129290;27;20490;-66
2022/04/26 09:26:12;;;;;;;9.60;3.20;;;;;;;;;;5126692;27;20502;-66
2022/04/26 09:28:39;;;;;;;9.65;2.55;;;;;;;;;;5110359;27;20079;-66
2022/04/26 09:31:16;;;;;;;9.02;2.75;;;;;;;;;;5119837;27;20557;-66
2022/04/26 09:33:47;;;;;;;8.75;3.03;;;;;;;;;;5115744;27;20088;-66
2022/04/26 09:36:14;;;;;;;8.13;2.95;;;;;;;;;;5107295;27;20138;-66
2022/04/26 09:38:47;;;;;;;15.88;3.38;;;;;;;;;;5107097;28;20581;-66
2022/04/26 09:41:13;;;;;;;13.35;3.70;;;;;;;;;;5111036;27;20096;-66
2022/04/26 09:43:40;;;;;;;6.32;2.85;;;;;;;;;;5124872;27;20138;-66
2022/04/26 09:46:07;;;;;;;6.32;2.90;;;;;;;;;;5113536;27;20052;-66
2022/04/26 09:48:35;;;;;;;6.95;2.97;;;;;;;;;;5108020;27;20067;-66
2022/04/26 09:51:02;;;;;;;6.90;2.75;;;;;;;;;;5109371;27;20056;-66
2022/04/26 09:53:32;;;;;;;8.55;2.83;;;;;;;;;;5114899;27;20101;-66
2022/04/26 09:56:00;;;;;;;8.48;2.85;;;;;;;;;;5126204;27;20868;-66
2022/04/26 09:58:27;;;;;;;8.60;2.58;;;;;;;;;;5119816;27;20586;-65
2022/04/26 10:00:55;;;;;;;7.70;2.88;;;;;;;;;;5112407;27;20058;-66
2022/04/26 10:03:29;;;;;;;18.63;3.63;;;;;;;;;;5104164;27;20052;-66
2022/04/26 10:05:59;;;;;;;12.43;3.25;;;;;;;;;;5110194;27;20048;-66
2022/04/26 10:08:27;;;;;;;7.03;2.92;;;;;;;;;;5107314;27;20557;-66
2022/04/26 10:10:54;;;;;;;6.60;2.70;;;;;;;;;;5106108;27;20055;-66
2022/04/26 10:13:32;;;;;;;5.82;2.35;;;;;;;;;;5103450;27;20109;-67
2022/04/26 10:16:00;;;;;;;7.80;2.63;;;;;;;;;;5109473;27;20075;-67
2022/04/26 10:18:40;;;;;;;5.78;2.65;;;;;;;;;;5111682;27;20127;-67
2022/04/26 10:21:06;;;;;;;5.85;2.53;;;;;;;;;;5106471;27;20056;-67
2022/04/26 10:23:51;;;;;;;9.68;2.85;;;;;;;;;;5110207;27;20134;-67
2022/04/26 10:26:24;;;;;;;10.95;3.05;;;;;;;;;;5124240;27;20083;-67
2022/04/26 10:28:53;;;;;;;8.82;2.50;;;;;;;;;;5109484;27;20102;-67
2022/04/26 10:31:37;;;;;;;9.07;2.80;;;;;;;;;;5118483;27;20207;-67
2022/04/26 10:34:31;;;;;;;14.15;3.67;;;;;;;;;;5116823;27;20048;-63
2022/04/26 10:37:01;;;;;;;8.20;3.30;;;;;;;;;;5111979;27;20486;-63
2022/04/26 10:39:50;;;;;;;7.65;2.90;;;;;;;;;;5126017;27;20182;-64
2022/04/26 10:42:20;;;;;;;6.85;3.08;;;;;;;;;;5130342;27;20109;-63
2022/04/26 10:44:50;;;;;;;10.63;3.20;;;;;;;;;;5132586;27;20086;-64
2022/04/26 10:47:19;;;;;;;5.65;2.70;;;;;;;;;;5132233;27;20496;-64
2022/04/26 10:49:47;;;;;;;6.43;2.78;;;;;;;;;;5113696;27;20133;-64
2022/04/26 10:52:22;;;;;;;6.78;2.63;;;;;;;;;;5115111;27;20052;-63
2022/04/26 10:54:51;;;;;;;6.63;2.83;;;;;;;;;;5119131;27;20051;-64
2022/04/26 10:57:19;;;;;;;10.68;3.03;;;;;;;;;;5115397;27;20048;-64
2022/04/26 10:59:46;;;;;;;8.30;2.92;;;;;;;;;;5121781;27;20076;-64
2022/04/26 11:02:17;;;;;;;8.65;2.90;;;;;;;;;;5115757;27;20261;-66
2022/04/26 11:04:44;;;;;;;9.00;3.17;;;;;;;;;;5110633;27;20080;-65
2022/04/26 11:07:11;;;;;;;9.27;2.70;;;;;;;;;;5123016;27;20566;-65
2022/04/26 11:09:43;;;;;;;7.35;2.50;;;;;;;;;;5122284;27;20524;-65
2022/04/26 11:12:09;;;;;;;7.70;2.35;;;;;;;;;;5109705;27;20093;-66
2022/04/26 11:14:42;;;;;;;6.82;2.60;;;;;;;;;;5124446;27;20086;-68
2022/04/26 11:17:08;;;;;;;7.40;2.50;;;;;;;;;;5111392;27;20145;-67
2022/04/26 11:19:36;;;;;;;6.10;2.30;;;;;;;;;;5116385;27;20109;-67
2022/04/26 11:22:03;;;;;;;;;;;;;;;;;;5110210;27;20052;-67
2022/04/26 11:30:02;;;;;;;8.65;2.40;;;;;;;;;;5127149;27;20048;-67
2022/04/26 11:32:34;;;;;;;8.68;2.60;;;;;;;;;;5118770;27;20175;-67
2022/04/26 11:35:01;;;;;;;10.27;2.45;;;;;;;;;;5124879;27;20130;-67
2022/04/26 11:37:27;;;;;;;4.20;2.13;;;;;;;;;;5114557;27;20141;-67
2022/04/26 11:39:54;;;;;;;5.85;2.13;;;;;;;;;;5108846;27;20071;-67
2022/04/26 11:42:20;;;;;;;6.63;2.42;;;;;;;;;;5109183;27;20567;-67
2022/04/26 11:45:00;;;;;;;6.93;2.47;;;;;;;;;;5121225;27;20055;-65
2022/04/26 11:47:37;;;;;;;5.93;1.95;;;;;;;;;;5118215;27;20137;-67
2022/04/26 11:50:23;;;;;;;5.57;1.98;;;;;;;;;;5109137;27;20059;-67
2022/04/26 11:52:50;;;;;;;6.60;2.28;;;;;;;;;;5121703;27;20617;-67
2022/04/26 11:55:21;;;;;;;7.85;1.98;;;;;;;;;;5121179;27;20119;-67
2022/04/26 11:57:48;;;;;;;5.18;2.38;;;;;;;;;;5108958;27;20091;-67
2022/04/26 12:00:16;;;;;;;10.82;2.58;;;;;;;;;;5113705;27;20104;-67
2022/04/26 12:02:45;;;;;;;5.57;2.00;;;;;;;;;;5108557;27;20177;-67
2022/04/26 12:05:12;;;;;;;6.80;2.00;;;;;;;;;;5109377;27;20060;-67
2022/04/26 12:07:39;;;;;;;6.55;2.25;;;;;;;;;;5109118;27;20105;-67
2022/04/26 12:10:23;;;;;;;6.43;2.40;;;;;;;;;;5108165;27;20083;-67
2022/04/26 12:12:57;;;;;;;4.63;2.00;;;;;;;;;;5107917;27;20087;-67
2022/04/26 12:15:24;;;;;;;4.68;1.85;;;;;;;;;;5108122;27;20087;-66
2022/04/26 12:18:02;;;;;;;5.93;2.13;;;;;;;;;;5120759;27;20078;-66
2022/04/26 12:20:28;;;;;;;5.18;2.13;;;;;;;;;;5122278;27;20514;-66
2022/04/26 12:22:55;;;;;;;7.75;2.58;;;;;;;;;;5108470;27;20048;-66
2022/04/26 12:25:22;;;;;;;7.38;2.10;;;;;;;;;;5109310;27;20078;-65
2022/04/26 12:28:01;;;;;;;6.50;2.20;;;;;;;;;;5111534;27;20394;-66
2022/04/26 12:30:29;;;;;;;7.72;2.30;;;;;;;;;;5107857;27;20072;-66
2022/04/26 12:32:55;;;;;;;5.45;2.10;;;;;;;;;;5108279;27;20098;-65
2022/04/26 12:35:22;;;;;;;7.00;2.08;;;;;;;;;;5123894;27;20136;-66
2022/04/26 12:38:02;;;;;;;5.32;2.08;;;;;;;;;;5117357;27;20055;-65
2022/04/26 12:40:28;;;;;;;5.38;2.03;;;;;;;;;;5116251;27;20086;-67
2022/04/26 12:42:57;;;;;;;4.80;2.13;;;;;;;;;;5129430;27;20083;-65
2022/04/26 12:45:24;;;;;;;7.07;2.60;;;;;;;;;;5129441;27;20079;-66
2022/04/26 12:50:50;;;;;;;4.43;2.05;;;;;;;;;;5122550;27;20485;-66
2022/04/26 12:53:26;;;;;;;4.10;1.70;;;;;;;;;;5107939;27;21019;-66
2022/04/26 12:55:53;;;;;;;5.00;1.92;;;;;;;;;;5108318;27;20080;-66
2022/04/26 12:58:34;;;;;;;5.53;1.92;;;;;;;;;;5110952;27;20101;-66
2022/04/26 13:01:01;;;;;;;4.10;1.90;;;;;;;;;;5107613;27;20449;-66
2022/04/26 13:03:28;;;;;;;5.72;2.20;;;;;;;;;;5108767;27;20147;-66
2022/04/26 13:06:23;;;;;;;5.13;2.00;;;;;;;;;;5108559;27;20055;-66
2022/04/26 13:09:10;;;;;;;5.85;2.60;;;;;;;;;;5104812;27;20147;-66
2022/04/26 13:11:36;;;;;;;5.22;2.20;;;;;;;;;;5118989;27;20076;-66
2022/04/26 13:14:03;;;;;;;8.48;2.38;;;;;;;;;;5111003;27;20127;-66
2022/04/26 13:16:50;;;;;;;3.50;1.75;;;;;;;;;;5118534;27;20071;-66
2022/04/26 13:19:16;;;;;;;4.85;1.88;;;;;;;;;;5108184;27;20063;-66
2022/04/26 13:21:42;;;;;;;4.57;1.77;;;;;;;;;;5107266;27;20076;-66
2022/04/26 13:24:10;;;;;;;7.22;2.13;;;;;;;;;;5112301;27;20131;-66
2022/04/26 13:26:37;;;;;;;116.55;7.03;;;;;;;;;;5105051;27;20101;-66
2022/04/26 13:29:04;;;;;;;5.50;2.22;;;;;;;;;;5107425;27;20840;-66
2022/04/26 13:31:31;;;;;;;3.38;1.73;;;;;;;;;;5107725;27;20079;-66
2022/04/26 13:33:58;;;;;;;6.60;1.70;;;;;;;;;;5107447;27;20109;-66
2022/04/26 13:36:44;;;;;;;6.00;2.15;;;;;;;;;;5115156;27;20056;-66
2022/04/26 13:39:10;;;;;;;2.88;1.63;;;;;;;;;;5109567;27;20533;-67
2022/04/26 13:41:37;;;;;;;4.60;1.80;;;;;;;;;;5107410;27;20056;-66
2022/04/26 13:44:03;;;;;;;3.05;1.40;;;;;;;;;;5107086;27;20080;-67
2022/04/26 13:46:30;;;;;;;4.95;1.85;;;;;;;;;;5111765;27;20567;-66
2022/04/26 13:48:56;;;;;;;5.30;1.50;;;;;;;;;;5129576;27;20056;-66
2022/04/26 13:51:27;;;;;;;5.32;1.90;;;;;;;;;;5127855;27;20079;-65
2022/04/26 13:53:53;;;;;;;4.80;1.60;;;;;;;;;;5110154;27;20151;-66
2022/04/26 13:56:19;;;;;;;4.28;2.00;;;;;;;;;;5129143;27;20928;-64
2022/04/26 13:58:46;;;;;;;3.00;1.50;;;;;;;;;;5129532;27;20549;-64
2022/04/26 14:01:12;;;;;;;3.15;1.58;;;;;;;;;;5116701;27;20509;-66
2022/04/26 14:03:39;;;;;;;4.97;1.77;;;;;;;;;;5111370;27;20143;-66
2022/04/26 14:06:05;;;;;;;3.55;1.63;;;;;;;;;;5120737;27;20048;-63
2022/04/26 14:08:32;;;;;;;2.92;1.40;;;;;;;;;;5128148;27;20163;-63
2022/04/26 14:10:58;;;;;;;2.35;1.30;;;;;;;;;;5127141;27;20051;-64
2022/04/26 14:13:25;;;;;;;3.10;1.40;;;;;;;;;;5111712;27;20146;-63
2022/04/26 14:24:07;;;;;;;4.45;1.60;;;;;;;;;;5110839;27;20130;-62
2022/04/26 14:26:34;;;;;;;5.05;2.00;;;;;;;;;;5124539;27;20075;-63
2022/04/26 14:29:00;;;;;;;6.03;2.22;;;;;;;;;;5115077;27;20087;-63
2022/04/26 14:31:27;;;;;;;5.85;2.00;;;;;;;;;;5124109;27;20102;-63
2022/04/26 14:33:53;;;;;;;5.55;1.90;;;;;;;;;;5110241;27;20058;-63
2022/04/26 14:36:20;;;;;;;4.38;2.00;;;;;;;;;;5110899;27;20056;-63
2022/04/26 14:39:06;;;;;;;5.32;2.08;;;;;;;;;;5110498;27;20524;-63
2022/04/26 14:41:34;;;;;;;6.95;2.15;;;;;;;;;;5109252;27;20086;-63
2022/04/26 14:44:00;;;;;;;6.65;2.30;;;;;;;;;;5110386;27;20571;-63
2022/04/26 14:46:28;;;;;;;5.60;2.30;;;;;;;;;;5110118;27;20139;-63
2022/04/26 14:49:01;;;;;;;6.47;2.15;;;;;;;;;;5118169;27;20441;-63
2022/04/26 14:51:29;;;;;;;7.38;2.15;;;;;;;;;;5114097;27;20048;-63
2022/04/26 14:53:55;;;;;;;6.30;2.40;;;;;;;;;;5109690;27;20076;-63
2022/04/26 14:56:22;;;;;;;6.30;2.20;;;;;;;;;;5121129;27;20909;-63
2022/04/26 14:59:09;;;;;;;8.80;3.13;;;;;;;;;;5122100;27;20051;-63
2022/04/26 15:01:35;;;;;;;5.00;2.78;;;;;;;;;;5130791;27;20531;-66
2022/04/26 15:04:02;;;;;;;5.90;2.28;;;;;;;;;;5130943;27;20082;-66
2022/04/26 15:06:28;;;;;;;5.90;2.20;;;;;;;;;;5110406;27;20052;-65
2022/04/26 15:11:42;;;;;;;5.38;2.13;;;;;;;;;;5115428;27;20156;-65
2022/04/26 15:16:54;;;;;;;6.43;2.45;;;;;;;;;;5113157;27;20068;-65
2022/04/26 15:19:21;;;;;;;3.97;2.10;;;;;;;;;;5110416;27;20048;-65
2022/04/26 15:21:47;;;;;;;5.40;2.70;;;;;;;;;;5109463;27;20060;-65
2022/04/26 15:24:15;;;;;;;6.50;2.50;;;;;;;;;;5111155;27;20083;-65
2022/04/26 15:26:41;;;;;;;5.88;2.58;;;;;;;;;;5115420;27;20052;-65
2022/04/26 15:29:08;;;;;;;7.22;2.40;;;;;;;;;;5110503;27;20056;-65
2022/04/26 15:31:34;;;;;;;5.03;2.00;;;;;;;;;;5118144;27;20051;-65
2022/04/26 15:34:02;;;;;;;4.95;2.22;;;;;;;;;;5117207;27;20048;-65
2022/04/26 15:36:28;;;;;;;8.15;2.30;;;;;;;;;;5109777;27;20048;-65
2022/04/26 15:38:59;;;;;;;6.88;2.17;;;;;;;;;;5110603;27;20110;-66
2022/04/26 15:41:26;;;;;;;6.90;2.33;;;;;;;;;;5111511;27;20110;-66
2022/04/26 15:43:52;;;;;;;4.88;2.10;;;;;;;;;;5110597;27;20578;-66
2022/04/26 15:46:38;;;;;;;7.28;2.22;;;;;;;;;;5110765;27;20549;-64
2022/04/26 15:49:04;;;;;;;5.32;2.28;;;;;;;;;;5118684;27;20060;-66
2022/04/26 15:51:31;;;;;;;6.93;2.10;;;;;;;;;;5121631;27;20072;-66
2022/04/26 15:53:59;;;;;;;7.28;2.08;;;;;;;;;;5122173;27;20124;-65
2022/04/26 15:56:26;;;;;;;16.40;5.45;;;;;;;;;;5112915;27;20508;-66
2022/04/26 15:58:52;;;;;;;5.13;2.20;;;;;;;;;;5111617;27;20559;-65
2022/04/26 16:01:19;;;;;;;9.82;2.33;;;;;;;;;;5109911;27;20563;-65
2022/04/26 16:03:45;;;;;;;10.75;2.95;;;;;;;;;;5110503;27;20052;-66
2022/04/26 16:06:12;;;;;;;6.10;2.47;;;;;;;;;;5130951;27;20139;-65
2022/04/26 16:08:38;;;;;;;5.07;2.08;;;;;;;;;;5126498;27;20087;-65
2022/04/26 16:22:11;;;;;;;4.80;2.20;;;;;;;;;;5108902;27;20052;-65
2022/04/26 16:24:38;;;;;;;5.10;2.10;;;;;;;;;;5109560;27;20142;-65
2022/04/26 16:27:05;;;;;;;9.60;2.88;;;;;;;;;;5111223;27;20056;-65
2022/04/26 16:29:32;;;;;;;7.40;2.30;;;;;;;;;;5109494;27;20072;-66
2022/04/26 16:31:58;;;;;;;6.72;2.33;;;;;;;;;;5108704;27;20148;-65
2022/04/26 16:34:25;;;;;;;7.45;2.38;;;;;;;;;;5109221;27;20135;-65
2022/04/26 16:36:51;;;;;;;6.45;2.75;;;;;;;;;;5109096;28;20506;-65
2022/04/26 16:39:18;;;;;;;5.18;2.25;;;;;;;;;;5109773;27;20079;-65
2022/04/26 16:41:45;;;;;;;5.77;2.30;;;;;;;;;;5109201;27;20036;-66
2022/04/26 16:44:12;;;;;;;5.80;2.47;;;;;;;;;;5110511;27;20294;-65
2022/04/26 16:46:38;;;;;;;6.72;2.25;;;;;;;;;;5138045;27;20124;-66
2022/04/26 16:49:05;;;;;;;8.68;2.53;;;;;;;;;;5117908;27;20047;-68
2022/04/26 16:51:34;;;;;;;6.80;2.38;;;;;;;;;;5110064;27;20071;-63
2022/04/26 16:54:00;;;;;;;9.07;3.13;;;;;;;;;;5111156;27;20144;-65
2022/04/26 16:56:27;;;;;;;6.50;2.80;;;;;;;;;;5108311;27;20141;-65
2022/04/26 16:58:53;;;;;;;7.45;2.83;;;;;;;;;;5121238;27;20138;-64
2022/04/26 17:01:20;;;;;;;6.13;2.90;;;;;;;;;;5129528;27;20052;-64
2022/04/26 17:03:46;;;;;;;6.53;2.50;;;;;;;;;;5127658;27;20095;-64
2022/04/26 17:06:13;;;;;;;7.95;2.40;;;;;;;;;;5123494;27;20135;-64
2022/04/26 17:08:39;;;;;;;8.32;2.50;;;;;;;;;;5109696;27;21643;-64
2022/04/26 17:13:50;;;;;;;7.10;2.88;;;;;;;;;;5109489;27;20067;-64
2022/04/26 17:16:16;;;;;;;11.45;3.15;;;;;;;;;;5113570;27;20140;-64
2022/04/26 17:18:43;;;;;;;5.25;2.63;;;;;;;;;;5122169;27;20040;-64
2022/04/26 17:21:09;;;;;;;6.32;2.55;;;;;;;;;;5119404;27;20095;-61
2022/04/26 17:23:36;;;;;;;11.38;3.15;;;;;;;;;;5109682;27;20088;-62
2022/04/26 17:26:02;;;;;;;10.32;3.83;;;;;;;;;;5114619;27;20071;-61
2022/04/26 17:28:29;;;;;;;10.43;4.03;;;;;;;;;;5123510;27;20079;-61
2022/04/26 17:30:56;;;;;;;7.55;2.85;;;;;;;;;;5129973;27;20534;-61
2022/04/26 17:33:22;;;;;;;9.60;3.42;;;;;;;;;;5122176;27;20055;-61
2022/04/26 17:35:49;;;;;;;8.23;3.33;;;;;;;;;;5111314;27;20538;-61
2022/04/26 17:38:15;;;;;;;13.40;4.35;;;;;;;;;;5125102;27;20155;-61
2022/04/26 17:40:41;;;;;;;10.18;4.28;;;;;;;;;;5128928;27;20138;-63
2022/04/26 17:43:08;;;;;;;7.50;3.17;;;;;;;;;;5131932;27;20075;-64
2022/04/26 17:45:35;;;;;;;6.65;2.83;;;;;;;;;;5131031;27;20857;-63
2022/04/26 17:48:01;;;;;;;14.15;3.38;;;;;;;;;;5121287;27;20047;-64
2022/04/26 17:50:28;;;;;;;9.10;3.20;;;;;;;;;;5117544;27;20139;-64
2022/04/26 17:58:24;;;;;;;5.78;2.67;;;;;;;;;;5124981;27;20105;-64
2022/04/26 18:00:51;;;;;;;10.73;2.90;;;;;;;;;;5129610;27;20343;-61
2022/04/26 18:03:19;;;;;;;9.13;2.65;;;;;;;;;;5126194;27;20083;-62
2022/04/26 18:05:45;;;;;;;7.40;2.53;;;;;;;;;;5111156;27;20043;-61
2022/04/26 18:08:12;;;;;;;8.00;3.20;;;;;;;;;;5110984;27;20086;-62
2022/04/26 18:10:41;;;;;;;10.35;3.00;;;;;;;;;;5111133;27;20150;-63
2022/04/26 18:13:07;;;;;;;6.50;2.53;;;;;;;;;;5121973;27;20067;-63
2022/04/26 18:15:33;;;;;;;6.88;2.85;;;;;;;;;;5129338;27;20084;-64
2022/04/26 18:18:00;;;;;;;8.02;2.42;;;;;;;;;;5110019;27;20121;-64
2022/04/26 18:20:31;;;;;;;7.03;2.95;;;;;;;;;;5109315;27;20055;-64
2022/04/26 18:22:57;;;;;;;6.53;2.53;;;;;;;;;;5106731;27;20100;-64
2022/04/26 18:28:08;;;;;;;9.95;2.60;;;;;;;;;;5110960;27;21060;-62
2022/04/26 18:30:35;;;;;;;8.43;2.63;;;;;;;;;;5111243;27;20142;-62
2022/04/26 18:33:01;;;;;;;11.68;2.55;;;;;;;;;;5126202;27;20570;-62
2022/04/26 18:35:27;;;;;;;7.88;2.58;;;;;;;;;;5120505;27;20183;-64
2022/04/26 18:37:54;;;;;;;7.00;2.65;;;;;;;;;;5114301;27;20722;-64
2022/04/26 18:40:20;;;;;;;10.05;2.47;;;;;;;;;;5109714;28;20129;-62
2022/04/26 18:42:47;;;;;;;6.13;2.72;;;;;;;;;;5108212;27;20083;-62
2022/04/26 18:45:14;;;;;;;8.50;2.78;;;;;;;;;;5110767;27;20107;-62
2022/04/26 18:47:40;;;;;;;6.28;2.53;;;;;;;;;;5111827;27;20105;-62
2022/04/26 18:50:06;;;;;;;6.68;2.65;;;;;;;;;;5129005;27;20085;-62
2022/04/26 18:52:33;;;;;;;7.20;3.03;;;;;;;;;;5113741;27;20143;-61
2022/04/26 18:54:59;;;;;;;6.55;2.80;;;;;;;;;;5130655;27;20181;-64
2022/04/26 18:57:26;;;;;;;7.38;2.80;;;;;;;;;;5121478;27;20137;-65
2022/04/26 18:59:52;;;;;;;12.65;3.03;;;;;;;;;;5112636;27;20130;-64
2022/04/26 19:02:19;;;;;;;9.43;3.60;;;;;;;;;;5109690;27;20171;-63
2022/04/26 19:04:46;;;;;;;6.18;3.00;;;;;;;;;;5121250;27;20048;-64
2022/04/26 19:07:12;;;;;;;7.07;3.05;;;;;;;;;;5117595;27;20080;-64
2022/04/26 19:12:15;;;;;;;6.43;2.80;;;;;;;;;;5115498;27;20056;-63
2022/04/26 19:12:25;;;;;;;6.63;3.05;;;;;;;;;;5114835;27;20139;-63